createdAt,value
2023-02-21T00:01:01.638Z,1.50
2023-02-21T00:04:02.909Z,0.90
2023-02-21T00:06:49.065Z,1.02
2023-02-21T00:09:34.764Z,3.25
2023-02-21T00:12:20.666Z,3.20
2023-02-21T00:15:06.640Z,3.03
2023-02-21T00:17:52.740Z,2.40
2023-02-21T00:20:38.731Z,2.08
2023-02-21T00:23:25.243Z,2.15
2023-02-21T00:26:13.505Z,1.40
2023-02-21T00:28:59.927Z,1.58
2023-02-21T00:31:47.061Z,1.48
2023-02-21T00:34:32.858Z,1.90
2023-02-21T00:37:18.569Z,1.25
2023-02-21T00:40:04.572Z,1.73
2023-02-21T00:42:49.987Z,1.95
2023-02-21T00:45:35.724Z,2.33
2023-02-21T00:48:21.473Z,2.47
2023-02-21T00:51:07.324Z,2.50
2023-02-21T00:53:53.020Z,2.63
2023-02-21T00:56:38.791Z,1.92
2023-02-21T00:59:24.584Z,2.13
2023-02-21T01:02:10.460Z,2.00
2023-02-21T01:04:56.245Z,1.90
2023-02-21T01:07:42.321Z,2.47
2023-02-21T01:10:28.283Z,7.38
2023-02-21T01:13:14.223Z,84.93
2023-02-21T01:15:59.980Z,55.88
2023-02-21T01:18:45.318Z,63.80
2023-02-21T01:21:33.760Z,67.93
2023-02-21T01:24:19.484Z,93.50
2023-02-21T01:27:04.884Z,80.97
2023-02-21T01:29:50.537Z,83.82
2023-02-21T01:32:36.141Z,86.77
2023-02-21T01:35:22.224Z,53.13
2023-02-21T01:38:08.019Z,44.05
2023-02-21T01:40:56.107Z,17.73
2023-02-21T01:43:42.886Z,5.00
2023-02-21T01:46:35.442Z,3.57
2023-02-21T01:49:23.217Z,3.70
2023-02-21T01:52:09.377Z,1.80
2023-02-21T01:54:56.940Z,1.42
2023-02-21T01:57:42.820Z,1.30
2023-02-21T02:00:31.323Z,0.90
2023-02-21T02:03:24.795Z,1.00
2023-02-21T02:06:19.684Z,0.90
2023-02-21T02:09:05.641Z,1.48
2023-02-21T02:12:16.146Z,1.55
2023-02-21T02:14:51.411Z,1.10
2023-02-21T02:17:24.419Z,1.03
2023-02-21T02:20:20.200Z,1.00
2023-02-21T02:22:58.262Z,2.65
2023-02-21T02:25:39.922Z,2.35
2023-02-21T02:28:16.735Z,2.10
2023-02-21T02:30:45.360Z,1.63
2023-02-21T02:33:30.745Z,1.33
2023-02-21T02:36:18.282Z,0.93
2023-02-21T02:38:55.985Z,1.00
2023-02-21T02:41:23.267Z,0.88
2023-02-21T02:43:54.929Z,0.80
2023-02-21T02:46:29.127Z,0.80
2023-02-21T02:48:56.419Z,0.90
2023-02-21T02:51:23.735Z,1.23
2023-02-21T02:53:50.929Z,1.10
2023-02-21T02:56:18.286Z,1.02
2023-02-21T02:58:51.181Z,0.88
2023-02-21T03:01:40.850Z,0.93
2023-02-21T03:04:26.383Z,0.80
2023-02-21T03:07:06.014Z,0.85
2023-02-21T03:09:39.463Z,0.82
2023-02-21T03:12:10.768Z,1.20
2023-02-21T03:14:58.260Z,1.02
2023-02-21T03:17:27.196Z,0.95
2023-02-21T03:19:56.555Z,1.17
2023-02-21T03:22:25.281Z,1.15
2023-02-21T03:24:55.852Z,0.98
2023-02-21T03:27:24.690Z,0.90
2023-02-21T03:30:01.071Z,0.60
2023-02-21T03:32:30.898Z,0.73
2023-02-21T03:34:58.243Z,1.00
2023-02-21T03:37:37.773Z,1.20
2023-02-21T03:40:11.214Z,1.00
2023-02-21T03:42:38.510Z,1.30
2023-02-21T03:45:06.037Z,1.13
2023-02-21T03:47:34.665Z,1.23
2023-02-21T03:50:05.263Z,1.15
2023-02-21T03:52:35.033Z,1.42
2023-02-21T03:55:03.326Z,1.58
2023-02-21T03:57:31.785Z,1.38
2023-02-21T03:59:59.143Z,1.30
2023-02-21T04:02:26.843Z,1.20
2023-02-21T04:04:54.581Z,1.35
2023-02-21T04:07:25.276Z,0.90
2023-02-21T04:09:52.436Z,1.20
2023-02-21T04:12:26.163Z,0.80
2023-02-21T04:14:53.447Z,0.82
2023-02-21T04:17:20.793Z,0.88
2023-02-21T04:19:49.160Z,0.90
2023-02-21T04:22:16.711Z,0.70
2023-02-21T04:24:44.832Z,0.80
2023-02-21T04:27:14.122Z,0.80
2023-02-21T04:29:45.596Z,0.80
2023-02-21T04:32:13.122Z,0.60
2023-02-21T04:34:40.620Z,0.80
2023-02-21T04:37:07.861Z,0.80
2023-02-21T04:39:35.423Z,0.90
2023-02-21T04:42:02.599Z,1.00
2023-02-21T04:44:30.790Z,0.65
2023-02-21T04:46:57.901Z,0.90
2023-02-21T04:49:27.751Z,0.70
2023-02-21T04:51:55.099Z,0.60
2023-02-21T04:54:22.376Z,0.70
2023-02-21T04:56:49.672Z,0.70
2023-02-21T04:59:17.055Z,0.60
2023-02-21T05:01:44.426Z,0.70
2023-02-21T05:04:12.958Z,0.65
2023-02-21T05:06:43.359Z,0.85
2023-02-21T05:09:10.787Z,0.80
2023-02-21T05:11:38.006Z,0.88
2023-02-21T05:14:05.272Z,0.90
2023-02-21T05:16:32.440Z,0.90
2023-02-21T05:18:59.687Z,0.80
2023-02-21T05:21:26.994Z,0.80
2023-02-21T05:23:57.171Z,0.70
2023-02-21T05:26:27.368Z,0.85
2023-02-21T05:28:55.085Z,0.90
2023-02-21T05:31:22.491Z,0.90
2023-02-21T05:33:49.774Z,0.77
2023-02-21T05:36:18.263Z,0.80
2023-02-21T05:38:52.256Z,0.80
2023-02-21T05:41:20.012Z,1.08
2023-02-21T05:43:48.509Z,1.10
2023-02-21T05:46:28.909Z,1.10
2023-02-21T05:48:56.846Z,2.72
2023-02-21T05:51:24.665Z,2.97
2023-02-21T05:53:52.202Z,2.22
2023-02-21T05:56:19.842Z,2.63
2023-02-21T05:58:47.353Z,2.15
2023-02-21T06:01:14.960Z,1.48
2023-02-21T06:03:42.603Z,1.50
2023-02-21T06:06:10.890Z,1.38
2023-02-21T06:08:48.505Z,1.13
2023-02-21T06:11:16.841Z,1.13
2023-02-21T06:13:45.327Z,1.17
2023-02-21T06:16:13.640Z,1.10
2023-02-21T06:18:40.834Z,0.98
2023-02-21T06:21:08.067Z,1.00
2023-02-21T06:23:35.389Z,1.38
2023-02-21T06:26:02.560Z,1.45
2023-02-21T06:28:31.237Z,1.00
2023-02-21T06:30:58.521Z,1.20
2023-02-21T06:33:26.966Z,1.17
2023-02-21T06:35:54.602Z,1.00
2023-02-21T06:38:24.720Z,1.15
2023-02-21T06:40:52.276Z,1.00
2023-02-21T06:43:19.344Z,1.20
2023-02-21T06:45:46.437Z,0.95
2023-02-21T06:48:18.956Z,1.02
2023-02-21T06:50:46.177Z,0.90
2023-02-21T06:53:13.518Z,0.85
2023-02-21T06:55:40.696Z,1.13
2023-02-21T06:58:07.998Z,1.20
2023-02-21T07:00:35.100Z,1.10
2023-02-21T07:03:02.317Z,1.00
2023-02-21T07:05:34.809Z,1.80
2023-02-21T07:08:02.476Z,1.10
2023-02-21T07:10:30.687Z,1.42
2023-02-21T07:12:57.901Z,1.38
2023-02-21T07:15:25.076Z,1.02
2023-02-21T07:17:52.355Z,1.13
2023-02-21T07:20:19.604Z,1.00
2023-02-21T07:22:46.837Z,1.00
2023-02-21T07:25:17.973Z,1.10
2023-02-21T07:27:47.396Z,1.17
2023-02-21T07:30:15.061Z,1.30
2023-02-21T07:32:42.382Z,1.03
2023-02-21T07:35:09.900Z,1.00
2023-02-21T07:37:37.093Z,1.20
2023-02-21T07:40:05.589Z,1.13
2023-02-21T07:42:33.117Z,1.13
2023-02-21T07:45:00.593Z,1.23
2023-02-21T07:47:27.963Z,1.25
2023-02-21T07:49:55.694Z,1.40
2023-02-21T07:52:23.304Z,1.20
2023-02-21T07:54:50.593Z,1.30
2023-02-21T07:57:18.661Z,1.20
2023-02-21T07:59:45.835Z,1.33
2023-02-21T08:02:13.281Z,2.08
2023-02-21T08:04:40.795Z,1.50
2023-02-21T08:07:08.465Z,2.30
2023-02-21T08:09:35.841Z,1.80
2023-02-21T08:12:03.334Z,2.05
2023-02-21T08:14:31.215Z,2.08
2023-02-21T08:16:58.297Z,2.70
2023-02-21T08:19:25.568Z,2.10
2023-02-21T08:21:52.690Z,1.77
2023-02-21T08:24:20.293Z,1.80
2023-02-21T08:26:47.591Z,2.03
2023-02-21T08:29:15.751Z,2.22
2023-02-21T08:31:44.626Z,1.60
2023-02-21T08:34:12.375Z,1.73
2023-02-21T08:36:41.202Z,1.80
2023-02-21T08:39:09.091Z,1.95
2023-02-21T08:41:40.225Z,1.90
2023-02-21T08:44:07.589Z,1.75
2023-02-21T08:46:35.268Z,1.83
2023-02-21T08:49:04.540Z,1.95
2023-02-21T08:51:32.938Z,1.77
2023-02-21T08:54:00.440Z,1.70
2023-02-21T08:56:28.350Z,2.03
2023-02-21T08:58:55.645Z,2.00
2023-02-21T09:01:23.813Z,1.75
2023-02-21T09:03:51.339Z,2.13
2023-02-21T09:06:18.870Z,2.30
2023-02-21T09:08:46.147Z,2.20
2023-02-21T09:11:13.681Z,2.90
2023-02-21T09:13:42.097Z,2.20
2023-02-21T09:16:09.344Z,1.65
2023-02-21T09:18:36.477Z,2.45
2023-02-21T09:21:06.566Z,2.63
2023-02-21T09:23:33.848Z,2.70
2023-02-21T09:26:01.161Z,2.53
2023-02-21T09:28:29.622Z,2.83
2023-02-21T09:30:56.921Z,2.70
2023-02-21T09:33:25.415Z,3.10
2023-02-21T09:35:54.283Z,2.97
2023-02-21T09:38:21.438Z,2.80
2023-02-21T09:43:34.751Z,3.33
2023-02-21T09:46:04.101Z,3.10
2023-02-21T09:48:36.053Z,3.30
2023-02-21T09:51:05.610Z,2.50
2023-02-21T09:53:34.527Z,2.90
2023-02-21T09:56:06.517Z,2.90
2023-02-21T09:58:37.748Z,2.70
2023-02-21T10:01:09.093Z,2.97
2023-02-21T10:03:39.301Z,2.80
2023-02-21T10:06:29.751Z,2.80
2023-02-21T10:09:03.333Z,2.72
2023-02-21T10:11:37.433Z,2.63
2023-02-21T10:14:18.724Z,2.60
2023-02-21T10:17:07.286Z,2.50
2023-02-21T10:19:36.948Z,2.95
2023-02-21T10:22:11.388Z,3.40
2023-02-21T10:24:38.534Z,3.20
2023-02-21T10:27:08.109Z,2.10
2023-02-21T10:29:41.721Z,2.42
2023-02-21T10:32:10.073Z,2.50
2023-02-21T10:34:42.426Z,5.70
2023-02-21T10:37:12.916Z,4.63
2023-02-21T10:39:56.272Z,2.30
2023-02-21T10:42:32.615Z,2.10
2023-02-21T10:45:01.448Z,2.25
2023-02-21T10:47:58.900Z,2.50
2023-02-21T10:50:44.818Z,2.87
2023-02-21T10:53:32.471Z,1.90
2023-02-21T10:56:27.609Z,2.20
2023-02-21T10:59:09.354Z,2.00
2023-02-21T11:01:43.966Z,2.47
2023-02-21T11:04:29.358Z,2.00
2023-02-21T11:06:57.650Z,2.47
2023-02-21T11:09:27.619Z,2.20
2023-02-21T11:12:04.244Z,2.10
2023-02-21T11:14:32.293Z,2.22
2023-02-21T11:17:07.703Z,2.10
2023-02-21T11:19:48.934Z,2.00
2023-02-21T11:22:17.054Z,2.17
2023-02-21T11:24:47.470Z,2.20
2023-02-21T11:27:14.670Z,1.92
2023-02-21T11:29:44.877Z,2.15
2023-02-21T11:32:21.864Z,2.30
2023-02-21T11:34:49.495Z,1.95
2023-02-21T11:37:17.384Z,2.20
2023-02-21T11:39:52.005Z,2.17
2023-02-21T11:42:30.218Z,2.20
2023-02-21T11:45:22.267Z,2.10
2023-02-21T11:47:57.042Z,2.00
2023-02-21T11:50:26.442Z,1.90
2023-02-21T11:52:53.912Z,2.10
2023-02-21T11:55:25.911Z,2.30
2023-02-21T11:57:58.338Z,2.10
2023-02-21T12:00:40.988Z,2.45
2023-02-21T12:03:18.443Z,2.13
2023-02-21T12:05:48.582Z,2.30
2023-02-21T12:08:28.057Z,2.00
2023-02-21T12:11:11.615Z,2.90
2023-02-21T12:13:46.186Z,2.95
2023-02-21T12:16:27.042Z,2.75
2023-02-21T12:19:08.089Z,2.20
2023-02-21T12:21:48.778Z,2.72
2023-02-21T12:24:22.226Z,2.90
2023-02-21T12:26:58.940Z,2.65
2023-02-21T12:29:38.877Z,2.58
2023-02-21T12:32:06.009Z,2.65
2023-02-21T12:34:54.046Z,3.65
2023-02-21T12:37:21.049Z,3.50
2023-02-21T12:40:09.067Z,3.25
2023-02-21T12:42:40.427Z,3.50
2023-02-21T12:45:44.830Z,3.53
2023-02-21T12:48:27.138Z,3.00
2023-02-21T12:50:58.182Z,3.03
2023-02-21T12:53:43.796Z,2.40
2023-02-21T12:56:16.948Z,3.35
2023-02-21T12:58:44.084Z,3.45
2023-02-21T13:01:16.944Z,3.53
2023-02-21T13:03:52.016Z,3.00
2023-02-21T13:06:31.703Z,2.88
2023-02-21T13:09:22.362Z,3.40
2023-02-21T13:12:02.498Z,3.10
2023-02-21T13:14:35.064Z,2.90
2023-02-21T13:17:02.431Z,2.67
2023-02-21T13:19:37.565Z,3.15
2023-02-21T13:22:04.938Z,2.72
2023-02-21T13:24:48.920Z,3.10
2023-02-21T13:27:16.109Z,2.88
2023-02-21T13:29:43.696Z,2.90
2023-02-21T13:32:14.855Z,2.72
2023-02-21T13:34:45.680Z,2.78
2023-02-21T13:37:20.818Z,2.85
2023-02-21T13:40:08.390Z,3.33
2023-02-21T13:42:38.193Z,2.90
2023-02-21T13:45:23.798Z,3.00
2023-02-21T13:48:06.925Z,3.20
2023-02-21T13:50:37.586Z,3.20
2023-02-21T13:53:17.360Z,3.05
2023-02-21T13:56:04.670Z,3.50
2023-02-21T13:58:42.129Z,2.83
2023-02-21T14:01:29.358Z,3.40
2023-02-21T14:04:00.308Z,3.10
2023-02-21T14:06:33.114Z,3.65
2023-02-21T14:09:04.774Z,3.30
2023-02-21T14:11:38.577Z,3.28
2023-02-21T14:14:19.523Z,3.25
2023-02-21T14:16:46.687Z,3.53
2023-02-21T14:19:29.099Z,3.33
2023-02-21T14:22:03.561Z,3.53
2023-02-21T14:24:32.648Z,3.75
2023-02-21T14:27:05.526Z,3.13
2023-02-21T14:29:37.303Z,3.42
2023-02-21T14:32:04.756Z,3.42
2023-02-21T14:34:40.012Z,3.57
2023-02-21T14:37:16.356Z,3.22
2023-02-21T14:39:45.295Z,3.70
2023-02-21T14:42:24.341Z,3.88
2023-02-21T14:44:51.438Z,3.20
2023-02-21T14:47:18.649Z,3.60
2023-02-21T14:50:09.068Z,3.42
2023-02-21T14:52:42.096Z,3.53
2023-02-21T14:55:45.518Z,3.25
2023-02-21T14:58:21.782Z,2.80
2023-02-21T15:01:07.754Z,3.77
2023-02-21T15:03:42.442Z,3.30
2023-02-21T15:06:12.995Z,3.78
2023-02-21T15:08:44.892Z,3.20
2023-02-21T15:11:21.687Z,5.18
2023-02-21T15:13:48.985Z,13.00
2023-02-21T15:16:16.806Z,10.75
2023-02-21T15:19:05.464Z,4.45
2023-02-21T15:21:33.023Z,2.92
2023-02-21T15:24:01.891Z,2.97
2023-02-21T15:26:31.618Z,2.93
2023-02-21T15:29:08.166Z,2.47
2023-02-21T15:31:53.155Z,2.70
2023-02-21T15:34:23.173Z,2.70
2023-02-21T15:37:05.008Z,2.67
2023-02-21T15:39:36.789Z,2.57
2023-02-21T15:42:06.126Z,3.30
2023-02-21T15:44:37.307Z,2.92
2023-02-21T15:47:13.352Z,2.80
2023-02-21T15:49:42.921Z,2.88
2023-02-21T15:52:26.483Z,3.10
2023-02-21T15:55:13.378Z,3.00
2023-02-21T15:57:40.782Z,2.88
2023-02-21T16:00:24.487Z,3.20
2023-02-21T16:02:52.004Z,2.80
2023-02-21T16:05:29.922Z,3.20
2023-02-21T16:08:05.024Z,3.40
2023-02-21T16:10:32.756Z,3.00
2023-02-21T16:13:03.207Z,3.00
2023-02-21T16:15:35.841Z,3.13
2023-02-21T16:18:07.979Z,3.03
2023-02-21T16:20:36.815Z,3.03
2023-02-21T16:23:23.056Z,3.30
2023-02-21T16:25:57.804Z,3.42
2023-02-21T16:28:25.347Z,3.53
2023-02-21T16:30:52.786Z,3.43
2023-02-21T16:33:20.315Z,3.50
2023-02-21T16:35:47.806Z,4.80
2023-02-21T16:38:16.437Z,7.47
2023-02-21T16:40:46.639Z,6.45
2023-02-21T16:43:18.923Z,5.57
2023-02-21T16:45:48.685Z,7.60
2023-02-21T16:48:22.051Z,8.32
2023-02-21T16:50:50.023Z,7.57
2023-02-21T16:53:18.221Z,9.82
2023-02-21T16:55:45.600Z,12.60
2023-02-21T16:58:26.206Z,9.65
2023-02-21T17:00:53.940Z,7.68
2023-02-21T17:03:21.383Z,6.30
2023-02-21T17:05:51.203Z,9.60
2023-02-21T17:08:19.202Z,5.93
2023-02-21T17:10:46.684Z,5.28
2023-02-21T17:13:14.213Z,5.25
2023-02-21T17:15:41.368Z,4.32
2023-02-21T17:18:08.658Z,6.82
2023-02-21T17:20:35.838Z,7.07
2023-02-21T17:23:02.955Z,8.00
2023-02-21T17:25:30.508Z,6.80
2023-02-21T17:27:57.846Z,5.93
2023-02-21T17:30:27.463Z,5.07
2023-02-21T17:32:54.697Z,5.33
2023-02-21T17:35:22.755Z,4.95
2023-02-21T17:37:52.888Z,4.90
2023-02-21T17:40:21.594Z,6.60
2023-02-21T17:42:48.725Z,8.50
2023-02-21T17:45:19.741Z,8.63
2023-02-21T17:47:48.041Z,5.20
2023-02-21T17:50:16.008Z,3.85
2023-02-21T17:52:43.374Z,1.92
2023-02-21T17:55:15.995Z,1.88
2023-02-21T17:57:43.722Z,2.27
2023-02-21T18:00:16.005Z,1.70
2023-02-21T18:02:43.178Z,2.00
2023-02-21T18:05:10.593Z,2.33
2023-02-21T18:07:37.887Z,2.10
2023-02-21T18:10:09.085Z,2.47
2023-02-21T18:12:37.009Z,1.80
2023-02-21T18:15:04.919Z,2.25
2023-02-21T18:17:33.269Z,2.00
2023-02-21T18:20:01.655Z,2.30
2023-02-21T18:22:29.205Z,2.37
2023-02-21T18:24:59.581Z,2.80
2023-02-21T18:27:26.958Z,2.70
2023-02-21T18:29:56.346Z,2.67
2023-02-21T18:32:24.258Z,2.30
2023-02-21T18:34:51.758Z,2.80
2023-02-21T18:37:19.726Z,2.42
2023-02-21T18:39:46.948Z,2.35
2023-02-21T18:42:14.171Z,3.97
2023-02-21T18:44:41.228Z,2.80
2023-02-21T18:47:08.440Z,2.73
2023-02-21T18:49:38.963Z,2.97
2023-02-21T18:52:10.169Z,3.08
2023-02-21T18:54:38.022Z,2.60
2023-02-21T18:57:07.856Z,3.20
2023-02-21T18:59:35.610Z,2.70
2023-02-21T19:02:03.092Z,2.90
2023-02-21T19:04:30.356Z,2.80
2023-02-21T19:06:57.598Z,3.90
2023-02-21T19:09:25.079Z,2.40
2023-02-21T19:11:52.189Z,2.00
2023-02-21T19:14:19.363Z,1.92
2023-02-21T19:16:46.556Z,2.08
2023-02-21T19:19:13.679Z,2.20
2023-02-21T19:21:41.142Z,2.38
2023-02-21T19:24:08.708Z,1.90
2023-02-21T19:26:35.959Z,2.05
2023-02-21T19:29:03.353Z,1.80
2023-02-21T19:31:30.627Z,1.92
2023-02-21T19:33:57.879Z,2.00
2023-02-21T19:36:24.971Z,2.50
2023-02-21T19:38:52.274Z,2.25
2023-02-21T19:41:20.616Z,2.00
2023-02-21T19:43:47.943Z,2.50
2023-02-21T19:46:33.456Z,1.77
2023-02-21T19:49:00.796Z,2.27
2023-02-21T19:51:32.035Z,2.08
2023-02-21T19:54:01.031Z,2.20
2023-02-21T19:56:28.591Z,2.10
2023-02-21T19:58:55.907Z,3.60
2023-02-21T20:01:25.520Z,5.00
2023-02-21T20:03:53.088Z,2.50
2023-02-21T20:06:20.427Z,2.40
2023-02-21T20:08:48.894Z,3.05
2023-02-21T20:11:19.567Z,4.30
2023-02-21T20:13:46.898Z,13.20
2023-02-21T20:16:19.792Z,7.68
2023-02-21T20:18:49.984Z,6.03
2023-02-21T20:21:21.018Z,5.28
2023-02-21T20:23:48.278Z,4.05
2023-02-21T20:26:16.262Z,2.60
2023-02-21T20:28:43.586Z,2.95
2023-02-21T20:31:13.617Z,3.00
2023-02-21T20:33:40.992Z,2.80
2023-02-21T20:36:09.654Z,2.67
2023-02-21T20:38:37.062Z,3.23
2023-02-21T20:41:04.566Z,3.25
2023-02-21T20:43:31.784Z,2.80
2023-02-21T20:46:00.143Z,2.53
2023-02-21T20:48:27.302Z,2.30
2023-02-21T20:50:54.579Z,1.93
2023-02-21T20:53:21.820Z,2.60
2023-02-21T20:55:49.041Z,3.03
2023-02-21T20:58:16.372Z,4.13
2023-02-21T21:00:43.440Z,6.20
2023-02-21T21:03:14.573Z,6.83
2023-02-21T21:05:42.668Z,7.60
2023-02-21T21:08:10.496Z,7.82
2023-02-21T21:10:38.128Z,6.18
2023-02-21T21:13:05.544Z,6.00
2023-02-21T21:15:32.787Z,4.33
2023-02-21T21:18:00.271Z,4.13
2023-02-21T21:20:27.660Z,3.28
2023-02-21T21:22:55.175Z,3.40
2023-02-21T21:25:23.410Z,3.40
2023-02-21T21:27:50.626Z,2.20
2023-02-21T21:30:24.199Z,1.88
2023-02-21T21:32:51.613Z,1.92
2023-02-21T21:35:20.640Z,1.88
2023-02-21T21:37:48.473Z,1.80
2023-02-21T21:40:16.984Z,1.90
2023-02-21T21:42:45.766Z,1.83
2023-02-21T21:45:18.768Z,1.90
2023-02-21T21:47:47.020Z,1.92
2023-02-21T21:50:15.977Z,1.70
2023-02-21T21:52:44.322Z,1.60
2023-02-21T21:55:32.211Z,1.60
2023-02-21T21:57:59.449Z,1.40
2023-02-21T22:00:27.881Z,1.45
2023-02-21T22:02:57.631Z,1.70
2023-02-21T22:05:26.036Z,2.00
2023-02-21T22:07:53.777Z,2.10
2023-02-21T22:10:21.647Z,2.00
2023-02-21T22:12:52.002Z,2.17
2023-02-21T22:15:20.287Z,2.20
2023-02-21T22:17:49.040Z,2.23
2023-02-21T22:20:18.066Z,1.98
2023-02-21T22:22:46.802Z,2.03
2023-02-21T22:25:14.008Z,2.85
2023-02-21T22:27:41.454Z,2.15
2023-02-21T22:30:10.034Z,2.37
2023-02-21T22:32:37.378Z,2.83
2023-02-21T22:35:04.770Z,2.50
2023-02-21T22:37:33.946Z,2.08
2023-02-21T22:40:01.220Z,2.53
2023-02-21T22:42:28.404Z,2.30
2023-02-21T22:44:55.728Z,2.40
2023-02-21T22:47:22.884Z,2.40
2023-02-21T22:49:50.242Z,2.30
2023-02-21T22:52:17.363Z,2.58
2023-02-21T22:54:46.796Z,2.47
2023-02-21T22:57:16.166Z,2.20
2023-02-21T22:59:44.052Z,2.10
2023-02-21T23:02:11.480Z,2.33
2023-02-21T23:04:38.691Z,2.33
2023-02-21T23:07:05.814Z,2.50
2023-02-21T23:09:37.311Z,2.38
2023-02-21T23:12:06.235Z,2.40
2023-02-21T23:14:36.982Z,2.45
2023-02-21T23:17:04.290Z,2.33
2023-02-21T23:19:32.500Z,2.20
2023-02-21T23:21:59.613Z,2.10
2023-02-21T23:24:28.965Z,2.25
2023-02-21T23:26:56.083Z,2.15
2023-02-21T23:29:26.475Z,2.10
2023-02-21T23:31:58.272Z,2.00
2023-02-21T23:34:40.679Z,2.28
2023-02-21T23:37:08.755Z,1.75
2023-02-21T23:39:36.198Z,2.28
2023-02-21T23:42:03.840Z,2.30
2023-02-21T23:44:36.362Z,2.00
2023-02-21T23:47:06.276Z,2.10
2023-02-21T23:49:33.643Z,2.10
2023-02-21T23:52:02.174Z,1.92
2023-02-21T23:54:29.461Z,1.63
2023-02-21T23:57:00.964Z,1.90
2023-02-21T23:59:28.762Z,1.98
